Time;durP1;ratioP1;P1;durP2;ratioP2;P2;SDS_P1;SDS_P2;PMS_P1;PMS_P2;Temp;Humidity;BMP_temperature;BMP_pressure;BME280_temperature;BME280_humidity;BME280_pressure;Samples;Min_cycle;Max_cycle;Signal;HPM_P1;HPM_P2
2021/03/12 00:01:46;;;;;;;44.28;29.70;;;;;;;0.59;87.90;95248.16;5077356;28;20021;-90
2021/03/12 00:04:12;;;;;;;41.28;26.98;;;;;;;0.57;86.96;95256.56;5077298;28;20093;-91
2021/03/12 00:06:37;;;;;;;42.85;27.67;;;;;;;0.74;87.62;95286.69;5076257;28;20024;-90
2021/03/12 00:09:04;;;;;;;41.55;27.75;;;;;;;1.02;87.78;95320.78;5076179;28;20042;-90
2021/03/12 00:11:30;;;;;;;39.35;27.58;;;;;;;0.42;87.62;95245.44;5076102;28;20032;-90
2021/03/12 00:13:55;;;;;;;42.58;28.70;;;;;;;0.58;87.66;95260.72;5072858;28;20017;-91
2021/03/12 00:16:22;;;;;;;42.08;29.27;;;;;;;0.27;88.16;95238.97;5056088;28;20387;-91
2021/03/12 00:18:48;;;;;;;46.20;31.10;;;;;;;0.54;88.93;95289.47;5056073;28;20060;-91
2021/03/12 00:21:14;;;;;;;52.80;34.00;;;;;;;0.74;89.25;95298.16;5056162;28;20028;-90
2021/03/12 00:23:40;;;;;;;56.00;36.15;;;;;;;0.57;89.16;95277.94;5072729;28;20146;-91
2021/03/12 00:26:07;;;;;;;57.92;36.85;;;;;;;0.34;90.11;95230.78;5072693;28;20025;-91
2021/03/12 00:28:33;;;;;;;56.78;36.65;;;;;;;0.29;89.22;95204.56;5055984;28;20372;-91
2021/03/12 00:30:58;;;;;;;53.75;35.00;;;;;;;0.49;88.66;95225.84;5055996;28;20025;-91
2021/03/12 00:33:26;;;;;;;56.33;36.78;;;;;;;0.38;88.85;95212.75;5055918;28;20013;-91
2021/03/12 00:35:51;;;;;;;52.15;34.80;;;;;;;0.44;88.74;95210.31;5055963;28;20024;-91
2021/03/12 00:38:17;;;;;;;57.78;38.03;;;;;;;0.78;88.63;95260.63;5056023;28;20071;-91
2021/03/12 00:40:45;;;;;;;53.83;35.75;;;;;;;0.17;88.97;95149.88;5055898;28;20024;-91
2021/03/12 00:43:11;;;;;;;56.08;36.22;;;;;;;0.20;89.47;95105.56;5055947;28;20302;-90
2021/03/12 00:45:38;;;;;;;52.30;35.72;;;;;;;0.84;89.63;95168.06;5075025;28;20054;-92
2021/03/12 00:48:04;;;;;;;53.20;34.83;;;;;;;0.37;89.07;95095.59;5075937;28;20072;-91
2021/03/12 00:50:34;;;;;;;57.08;37.75;;;;;;;0.15;89.49;95066.00;5075890;28;20111;-91
2021/03/12 00:53:01;;;;;;;51.20;34.60;;;;;;;0.29;89.62;95081.69;5092787;28;20123;-91
2021/03/12 00:55:26;;;;;;;55.25;34.85;;;;;;;0.69;89.58;95157.00;5075758;28;20029;-91
2021/03/12 00:57:52;;;;;;;47.90;31.92;;;;;;;0.35;89.85;95081.91;5076030;28;20111;-92
2021/03/12 01:00:21;;;;;;;45.55;31.88;;;;;;;0.48;88.26;95090.72;5075712;28;20020;-91
2021/03/12 01:02:46;;;;;;;50.35;34.17;;;;;;;0.58;89.65;95100.38;5078505;28;20025;-91
2021/03/12 01:08:33;;;;;;;33.47;23.35;;;;;;;0.84;87.83;95100.47;5077826;28;20038;-91
2021/03/12 01:10:59;;;;;;;37.40;23.15;;;;;;;0.52;88.20;95049.38;5079424;28;20028;-91
2021/03/12 01:13:24;;;;;;;30.13;21.10;;;;;;;0.61;87.24;95035.41;5079370;28;20385;-91
2021/03/12 01:15:50;;;;;;;29.83;20.67;;;;;;;0.69;86.92;95050.09;5079350;28;20051;-92
2021/03/12 01:18:16;;;;;;;27.75;19.83;;;;;;;0.82;85.68;95068.81;5079159;28;20017;-91
2021/03/12 01:20:41;;;;;;;28.80;19.65;;;;;;;0.75;86.24;95074.38;5079248;28;20032;-91
2021/03/12 01:23:08;;;;;;;27.30;19.75;;;;;;;0.60;86.59;95035.84;5079281;28;20107;-92
2021/03/12 01:25:39;;;;;;;28.38;20.10;;;;;;;0.94;86.12;95094.81;5079085;28;20028;-92
2021/03/12 01:28:05;;;;;;;28.00;20.23;;;;;;;0.95;86.79;95107.03;5079035;28;20028;-91
2021/03/12 01:30:35;;;;;;;26.90;19.70;;;;;;;1.21;86.05;95142.59;5079163;28;20438;-92
2021/03/12 01:33:01;;;;;;;26.95;19.60;;;;;;;0.97;85.89;95098.59;5079971;28;20028;-91
2021/03/12 01:35:26;;;;;;;28.38;20.30;;;;;;;1.12;85.98;95131.03;5079018;28;20028;-91
2021/03/12 01:37:52;;;;;;;28.85;21.42;;;;;;;0.85;87.43;95078.66;5079266;28;20024;-91
2021/03/12 01:40:20;;;;;;;29.23;21.88;;;;;;;1.17;87.62;95133.16;5078913;28;20066;-91
2021/03/12 01:42:45;;;;;;;28.88;20.38;;;;;;;1.18;86.50;95124.75;5078875;28;20035;-91
2021/03/12 01:45:14;;;;;;;30.15;22.05;;;;;;;1.02;87.29;95133.59;5078815;28;20028;-92
2021/03/12 01:47:40;;;;;;;30.20;21.65;;;;;;;1.00;86.96;95114.53;5079679;28;20017;-91
2021/03/12 01:50:07;;;;;;;30.58;22.10;;;;;;;0.88;87.72;95085.09;5079699;28;20020;-92
2021/03/12 01:52:33;;;;;;;29.15;21.20;;;;;;;1.29;86.64;95121.75;5078488;28;20036;-91
2021/03/12 01:54:59;;;;;;;29.17;21.58;;;;;;;1.34;87.09;95120.50;5078490;28;20085;-91
2021/03/12 01:57:25;;;;;;;32.45;23.58;;;;;;;1.04;87.28;95098.38;5079429;28;20087;-92
2021/03/12 01:59:51;;;;;;;29.58;21.45;;;;;;;1.16;86.92;95104.94;5079403;28;20050;-91
2021/03/12 02:02:16;;;;;;;30.30;22.27;;;;;;;1.13;87.01;95077.13;5078313;28;20031;-91
2021/03/12 02:04:41;;;;;;;32.65;22.45;;;;;;;1.09;86.31;95094.44;5079934;28;20074;-92
2021/03/12 02:07:07;;;;;;;33.38;22.63;;;;;;;1.24;87.98;95123.03;5079189;28;20028;-92
2021/03/12 02:09:35;;;;;;;34.40;23.48;;;;;;;1.29;87.31;95132.47;5078411;28;20323;-92
2021/03/12 02:12:04;;;;;;;32.30;23.20;;;;;;;0.38;87.65;94988.31;5095208;28;20029;-91
2021/03/12 02:15:06;;;;;;;31.67;22.98;;;;;;;1.31;87.31;95130.84;5095267;28;20021;-91
2021/03/12 02:17:43;;;;;;;38.35;23.23;;;;;;;1.53;85.90;95133.66;5079165;28;20044;-89
2021/03/12 02:20:47;;;;;;;33.17;22.42;;;;;;;1.50;85.77;95136.44;5077752;28;20021;-91
2021/03/12 02:23:42;;;;;;;32.85;22.17;;;;;;;1.39;86.45;95134.09;5068892;28;20040;-91
2021/03/12 02:26:18;;;;;;;29.48;21.38;;;;;;;1.08;86.58;95111.66;5065915;28;20036;-91
2021/03/12 02:28:47;;;;;;;31.35;21.98;;;;;;;1.35;87.13;95117.38;5077969;28;20324;-91
2021/03/12 02:31:13;;;;;;;34.05;23.30;;;;;;;1.22;87.34;95089.84;5077722;28;20074;-91
2021/03/12 02:33:39;;;;;;;31.52;22.42;;;;;;;1.00;87.29;95077.06;5077773;28;20420;-91
2021/03/12 02:36:05;;;;;;;32.72;23.15;;;;;;;1.13;87.48;95111.16;5077843;28;20024;-91
2021/03/12 02:38:32;;;;;;;33.05;22.23;;;;;;;1.35;87.87;95141.47;5078676;28;20025;-92
2021/03/12 02:41:00;;;;;;;30.83;21.42;;;;;;;1.01;86.95;95083.19;5077736;28;20020;-91
2021/03/12 02:43:26;;;;;;;33.55;23.45;;;;;;;1.16;87.04;95091.56;5078689;28;20082;-91
2021/03/12 02:45:54;;;;;;;26.77;20.25;;;;;;;1.50;84.87;95107.75;5078135;28;20089;-92
2021/03/12 02:48:20;;;;;;;25.33;19.20;;;;;;;1.19;83.65;95048.66;5078512;28;20044;-92
2021/03/12 02:50:46;;;;;;;32.33;21.52;;;;;;;1.58;84.97;95108.28;5078327;28;20162;-92
2021/03/12 02:53:12;;;;;;;29.95;22.10;;;;;;;1.58;84.97;95108.28;5077392;28;20052;-90
2021/03/12 02:55:38;;;;;;;33.03;23.90;;;;;;;1.58;84.97;95108.28;5077332;28;20029;-91
2021/03/12 02:58:05;;;;;;;33.97;24.17;;;;;;;1.52;100.00;86598.63;5077396;28;20044;-91
2021/03/12 03:00:32;;;;;;;36.28;24.30;;;;;;;1.52;84.27;95075.19;5078225;28;20024;-91
2021/03/12 03:02:58;;;;;;;35.45;24.70;;;;;;;1.14;84.96;95038.50;5077221;28;20028;-90
2021/03/12 03:05:24;;;;;;;32.40;23.77;;;;;;;1.43;85.23;95099.91;5077270;28;20020;-92
2021/03/12 03:07:50;;;;;;;34.25;24.40;;;;;;;1.35;85.77;95084.53;5077194;28;20413;-92
2021/03/12 03:10:18;;;;;;;35.40;25.40;;;;;;;1.22;84.84;95065.75;5077280;28;20032;-91
2021/03/12 03:12:46;;;;;;;35.17;25.95;;;;;;;1.47;84.77;95084.50;5076986;28;20031;-91
2021/03/12 03:15:15;;;;;;;35.70;25.13;;;;;;;1.65;84.20;95075.19;5077142;28;20412;-91
2021/03/12 03:17:42;;;;;;;34.55;25.05;;;;;;;1.34;83.93;95075.75;5077971;28;20043;-93
2021/03/12 03:20:12;;;;;;;73.40;26.60;;;;;;;1.38;85.67;95091.69;5077904;28;20082;-91
2021/03/12 03:22:38;;;;;;;;;;;;;;;1.55;85.54;95128.63;5078242;28;20036;-92
2021/03/12 03:25:06;;;;;;;34.55;24.00;;;;;;;1.14;86.61;95067.16;5076833;28;19912;-91
2021/03/12 03:27:32;;;;;;;32.03;23.58;;;;;;;1.09;86.21;95065.75;5076808;28;20463;-91
2021/03/12 03:29:57;;;;;;;33.22;22.92;;;;;;;1.24;85.42;95079.47;5076744;28;20028;-92
2021/03/12 03:32:23;;;;;;;34.47;23.30;;;;;;;1.28;85.38;95080.13;5075841;28;20020;-92
2021/03/12 03:34:49;;;;;;;35.13;23.75;;;;;;;1.21;85.04;95040.94;5076663;28;20032;-91
2021/03/12 03:37:15;;;;;;;35.60;24.35;;;;;;;0.97;84.75;94970.25;5076946;28;20067;-91
2021/03/12 03:39:40;;;;;;;35.45;25.30;;;;;;;1.46;85.28;95048.22;5077596;28;20312;-91
2021/03/12 03:42:08;;;;;;;35.67;25.15;;;;;;;1.50;86.07;95083.66;5076403;28;20028;-91
2021/03/12 03:44:36;;;;;;;37.17;25.88;;;;;;;1.35;86.14;95093.28;5076625;28;20027;-92
2021/03/12 03:47:04;;;;;;;35.53;25.52;;;;;;;1.08;86.31;95055.50;5076488;28;20025;-91
2021/03/12 03:49:34;;;;;;;39.92;27.08;;;;;;;1.21;86.47;95066.94;5076504;28;20020;-91
2021/03/12 03:52:01;;;;;;;35.80;26.23;;;;;;;1.11;86.16;95030.56;5076458;28;20044;-91
2021/03/12 03:54:27;;;;;;;34.50;25.85;;;;;;;1.18;86.58;95044.50;5077418;28;20032;-91
2021/03/12 03:56:53;;;;;;;39.30;27.63;;;;;;;1.31;87.11;95066.63;5076324;28;20033;-91
2021/03/12 03:59:19;;;;;;;37.08;26.50;;;;;;;1.29;86.13;95062.91;5077267;28;20082;-92
2021/03/12 04:01:46;;;;;;;39.45;27.45;;;;;;;1.22;86.00;95065.75;5077770;28;20028;-91
2021/03/12 04:04:13;;;;;;;38.65;27.80;;;;;;;1.14;87.24;95053.78;5072422;28;20044;-91
2021/03/12 04:06:41;;;;;;;40.83;28.50;;;;;;;1.45;86.59;95099.50;5077290;28;20031;-92
2021/03/12 04:09:08;;;;;;;44.75;29.60;;;;;;;1.21;87.24;95073.03;5076275;28;20107;-91
2021/03/12 04:11:34;;;;;;;52.42;30.75;;;;;;;1.51;87.17;95114.59;5076204;28;20025;-91
2021/03/12 04:14:01;;;;;;;43.55;29.08;;;;;;;1.48;87.05;95130.75;5076337;28;20047;-92
2021/03/12 04:16:28;;;;;;;43.45;27.70;;;;;;;1.64;86.15;95132.59;5076216;28;20024;-92
2021/03/12 04:18:53;;;;;;;39.22;24.40;;;;;;;1.69;86.22;95118.66;5077686;28;20025;-91
2021/03/12 04:21:20;;;;;;;37.08;24.90;;;;;;;1.56;85.55;95098.00;5077221;28;20032;-92
2021/03/12 04:23:45;;;;;;;43.92;28.35;;;;;;;1.56;84.80;95086.56;5076134;28;20395;-92
2021/03/12 04:26:12;;;;;;;40.50;27.17;;;;;;;1.56;84.80;95086.56;5076073;28;20063;-91
2021/03/12 04:28:38;;;;;;;40.95;25.90;;;;;;;1.60;83.18;95065.78;5076043;28;20405;-91
2021/03/12 04:31:04;;;;;;;56.42;27.10;;;;;;;1.79;85.61;95123.69;5076230;28;20036;-91
2021/03/12 04:33:29;;;;;;;38.53;27.48;;;;;;;1.69;85.87;95140.09;5075959;28;20025;-90
2021/03/12 04:35:55;;;;;;;38.38;26.33;;;;;;;1.73;85.89;95167.50;5077006;28;20036;-91
2021/03/12 04:38:25;;;;;;;37.97;27.65;;;;;;;1.25;85.54;95097.78;5076367;28;20063;-91
2021/03/12 04:40:51;;;;;;;54.42;28.35;;;;;;;1.50;86.21;95125.75;5076893;28;20413;-91
2021/03/12 04:43:16;;;;;;;42.50;26.23;;;;;;;1.59;86.81;95147.25;5076279;28;20020;-92
2021/03/12 04:45:42;;;;;;;36.85;27.00;;;;;;;1.49;86.06;95161.69;5081567;28;20039;-91
2021/03/12 04:48:10;;;;;;;41.25;27.45;;;;;;;1.53;86.46;95179.16;5079535;28;20039;-92
2021/03/12 04:50:37;;;;;;;35.13;25.65;;;;;;;1.60;86.88;95169.41;5080134;28;20031;-92
2021/03/12 04:53:04;;;;;;;39.17;27.55;;;;;;;1.65;86.20;95166.97;5081121;28;20108;-91
2021/03/12 04:55:30;;;;;;;40.55;27.00;;;;;;;1.58;86.83;95178.63;5079563;28;20024;-90
2021/03/12 04:57:56;;;;;;;37.75;24.08;;;;;;;1.47;86.63;95156.78;5079516;28;20032;-91
2021/03/12 05:00:22;;;;;;;32.55;23.65;;;;;;;1.37;85.62;95128.41;5096540;28;20024;-91
2021/03/12 05:02:49;;;;;;;38.03;24.23;;;;;;;1.43;85.79;95150.75;5079533;28;20108;-90
2021/03/12 05:05:23;;;;;;;38.35;25.10;;;;;;;1.41;86.93;95149.72;5080398;28;20052;-92
2021/03/12 05:07:49;;;;;;;31.73;23.20;;;;;;;1.68;85.54;95171.47;5079556;28;20039;-91
2021/03/12 05:10:15;;;;;;;36.05;23.38;;;;;;;1.19;85.50;95109.44;5079443;28;20020;-91
2021/03/12 05:12:40;;;;;;;39.25;25.58;;;;;;;1.63;86.70;95169.31;5079473;28;20028;-91
2021/03/12 05:15:07;;;;;;;33.20;24.23;;;;;;;1.27;87.21;95106.13;5079374;28;20046;-92
2021/03/12 05:17:32;;;;;;;35.40;24.73;;;;;;;1.31;86.93;95135.44;5079061;28;20047;-92
2021/03/12 05:19:58;;;;;;;38.78;25.60;;;;;;;1.19;88.11;95142.28;5059149;28;20020;-92
2021/03/12 05:22:23;;;;;;;35.22;23.42;;;;;;;1.40;87.23;95145.53;5060194;28;20117;-91
2021/03/12 05:24:49;;;;;;;40.03;25.52;;;;;;;1.40;86.33;95134.84;5078741;28;20075;-91
2021/03/12 05:27:14;;;;;;;35.28;25.98;;;;;;;1.70;86.31;95190.53;5079170;28;20029;-90
2021/03/12 05:29:40;;;;;;;35.95;25.85;;;;;;;1.76;85.51;95180.06;5080411;28;20024;-93
2021/03/12 05:32:05;;;;;;;40.63;27.10;;;;;;;1.62;85.85;95183.13;5079192;28;20093;-93
2021/03/12 05:34:31;;;;;;;41.45;29.15;;;;;;;1.33;86.41;95169.81;5078889;28;20032;-93
2021/03/12 05:36:57;;;;;;;41.58;28.95;;;;;;;1.58;85.69;95183.97;5079875;28;20401;-93
2021/03/12 05:39:22;;;;;;;38.25;27.92;;;;;;;1.61;84.94;95182.38;5078905;28;20032;-92
2021/03/12 05:41:49;;;;;;;43.80;29.38;;;;;;;1.70;86.20;95198.56;5079785;28;20102;-92
2021/03/12 05:44:16;;;;;;;38.08;27.90;;;;;;;1.72;85.39;95198.88;5078706;28;20409;-91
2021/03/12 05:46:42;;;;;;;38.35;27.67;;;;;;;1.41;85.84;95153.13;5078761;28;20031;-90
2021/03/12 05:49:08;;;;;;;41.05;27.98;;;;;;;1.37;86.22;95170.47;5078734;28;20111;-93
2021/03/12 05:51:35;;;;;;;41.95;29.38;;;;;;;1.40;86.95;95173.03;5079455;28;20048;-91
2021/03/12 05:54:04;;;;;;;39.30;28.83;;;;;;;1.32;85.90;95147.66;5078801;28;20480;-92
2021/03/12 05:56:33;;;;;;;44.35;29.65;;;;;;;1.64;85.35;95186.13;5077344;28;20034;-92
2021/03/12 05:58:59;;;;;;;45.55;30.25;;;;;;;1.45;85.70;95158.38;5078427;28;20036;-91
2021/03/12 06:01:25;;;;;;;44.13;30.00;;;;;;;1.34;85.78;95137.28;5078583;28;20048;-90
2021/03/12 06:03:50;;;;;;;41.67;27.58;;;;;;;1.56;84.85;95167.59;5078438;28;20068;-94
2021/03/12 06:06:16;;;;;;;44.00;28.38;;;;;;;1.41;84.49;95131.72;5095219;28;20052;-93
2021/03/12 06:08:41;;;;;;;42.70;29.45;;;;;;;1.49;85.58;95151.75;5078067;28;20143;-93
2021/03/12 06:11:07;;;;;;;44.13;30.45;;;;;;;1.26;87.17;95135.97;5078154;28;20021;-93
2021/03/12 06:13:53;;;;;;;66.65;40.10;;;;;;;1.82;87.45;95216.56;5078206;28;20025;-94
2021/03/12 06:16:30;;;;;;;71.50;39.55;;;;;;;1.49;86.05;95177.75;5078481;28;20020;-93
2021/03/12 06:19:19;;;;;;;47.90;29.13;;;;;;;1.79;86.53;95233.47;5078026;28;20086;-93
2021/03/12 06:21:47;;;;;;;44.15;28.85;;;;;;;1.35;86.92;95194.22;5077819;28;20021;-93
2021/03/12 06:24:35;;;;;;;38.72;27.20;;;;;;;1.58;86.34;95204.66;5077615;28;20078;-93
2021/03/12 06:27:00;;;;;;;38.30;26.60;;;;;;;1.64;85.90;95234.31;5077965;28;20048;-94
2021/03/12 06:29:36;;;;;;;41.97;27.77;;;;;;;1.98;86.19;95260.50;5079896;28;20059;-93
2021/03/12 06:32:04;;;;;;;40.72;29.40;;;;;;;1.57;86.24;95219.22;5078828;28;20041;-94
2021/03/12 06:34:30;;;;;;;42.50;28.10;;;;;;;1.89;87.13;95265.75;5088891;28;20100;-91
2021/03/12 06:36:56;;;;;;;41.60;28.10;;;;;;;1.84;87.56;95267.03;5087592;28;20037;-94
2021/03/12 06:39:36;;;;;;;39.50;27.60;;;;;;;2.00;86.10;95252.78;5078132;28;20310;-93
2021/03/12 06:42:09;;;;;;;37.10;27.20;;;;;;;1.80;85.16;95218.91;5098223;28;20039;-93
2021/03/12 06:44:36;;;;;;;33.67;25.83;;;;;;;2.08;85.10;95260.19;5093608;28;20028;-93
2021/03/12 06:47:03;;;;;;;38.05;26.90;;;;;;;1.87;85.58;95233.28;5078302;28;20479;-94
2021/03/12 06:49:29;;;;;;;38.17;27.75;;;;;;;1.64;85.56;95212.91;5094038;28;20024;-93
2021/03/12 06:52:00;;;;;;;38.15;26.80;;;;;;;1.78;85.81;95228.56;5097628;28;20501;-92
2021/03/12 06:54:28;;;;;;;36.03;27.23;;;;;;;1.89;85.33;95231.69;5097291;28;20472;-92
2021/03/12 06:56:54;;;;;;;43.38;29.70;;;;;;;2.00;84.95;95250.13;5082900;28;20358;-93
2021/03/12 06:59:30;;;;;;;45.60;29.33;;;;;;;2.35;84.98;95299.97;5077133;28;20050;-92
2021/03/12 07:02:03;;;;;;;46.45;29.23;;;;;;;2.21;85.82;95288.91;5081732;28;20044;-92
2021/03/12 07:04:30;;;;;;;40.60;29.20;;;;;;;2.00;86.22;95291.03;5080667;28;20024;-90
2021/03/12 07:06:57;;;;;;;47.97;31.60;;;;;;;1.59;87.71;95251.66;5078629;28;20024;-91
2021/03/12 07:09:24;;;;;;;49.83;32.08;;;;;;;1.82;86.49;95282.78;5083995;28;20031;-91
2021/03/12 07:12:04;;;;;;;45.88;31.77;;;;;;;2.17;86.28;95336.50;5076725;28;20059;-91
2021/03/12 07:14:30;;;;;;;49.75;32.78;;;;;;;2.15;86.68;95341.53;5086043;28;20020;-92
2021/03/12 07:17:00;;;;;;;50.75;34.67;;;;;;;2.14;87.07;95327.41;5074355;28;20056;-91
2021/03/12 07:19:26;;;;;;;55.55;33.55;;;;;;;2.05;86.46;95303.16;5074292;28;20103;-88
2021/03/12 07:21:56;;;;;;;62.63;38.75;;;;;;;2.35;86.54;95320.66;5076573;28;20040;-90
2021/03/12 07:24:23;;;;;;;48.65;31.67;;;;;;;2.31;85.44;95285.94;5077673;28;20029;-91
2021/03/12 07:26:51;;;;;;;57.10;33.88;;;;;;;2.76;85.48;95319.78;5076790;28;20036;-94
2021/03/12 07:29:23;;;;;;;55.08;35.28;;;;;;;2.41;85.72;95275.31;5077039;28;20073;-93
2021/03/12 07:31:55;;;;;;;58.08;36.10;;;;;;;2.85;85.17;95327.19;5077694;28;20029;-90
2021/03/12 07:34:24;;;;;;;57.90;34.45;;;;;;;2.46;84.99;95293.53;5077315;28;20055;-90
2021/03/12 07:36:53;;;;;;;59.38;36.55;;;;;;;2.74;84.32;95346.28;5076531;28;20029;-92
2021/03/12 07:39:33;;;;;;;52.70;33.85;;;;;;;2.74;85.46;95332.13;5077299;28;20021;-90
2021/03/12 07:42:00;;;;;;;65.70;39.47;;;;;;;2.70;85.06;95351.00;5077405;28;20036;-90
2021/03/12 07:44:26;;;;;;;69.70;42.13;;;;;;;2.21;86.63;95295.03;5076310;28;20408;-91
2021/03/12 07:46:53;;;;;;;24.90;17.73;;;;;;;2.59;85.86;95356.69;5077205;28;20028;-90
2021/03/12 07:49:27;;;;;;;54.00;34.83;;;;;;;2.68;86.72;95337.28;5075968;28;20027;-88
2021/03/12 07:51:53;;;;;;;48.17;31.75;;;;;;;2.47;87.33;95309.19;5077053;28;20053;-92
2021/03/12 07:54:37;;;;;;;44.10;29.30;;;;;;;2.72;84.82;95347.91;5076170;28;20123;-89
2021/03/12 07:57:04;;;;;;;57.30;36.45;;;;;;;2.70;86.29;95348.31;5076965;28;20029;-89
2021/03/12 07:59:52;;;;;;;43.15;28.83;;;;;;;2.78;85.38;95338.16;5079130;28;20024;-89
2021/03/12 08:02:19;;;;;;;46.33;28.48;;;;;;;2.78;85.56;95325.47;5083008;28;20040;-89
2021/03/12 08:04:47;;;;;;;43.15;25.27;;;;;;;2.94;84.62;95332.66;5077049;28;20070;-89
2021/03/12 08:07:19;;;;;;;50.65;34.45;;;;;;;3.19;85.92;95357.91;5077348;28;20028;-90
2021/03/12 08:09:48;;;;;;;54.50;35.70;;;;;;;2.95;86.29;95323.41;5075372;28;20424;-89
2021/03/12 08:12:33;;;;;;;46.97;32.17;;;;;;;3.18;83.28;95364.47;5076103;28;20027;-88
2021/03/12 08:15:12;;;;;;;48.85;33.00;;;;;;;3.17;85.89;95333.47;5075738;28;20013;-89
2021/03/12 08:17:38;;;;;;;33.38;22.80;;;;;;;3.15;85.81;95328.53;5075590;28;20046;-88
2021/03/12 08:20:25;;;;;;;29.65;20.35;;;;;;;3.47;85.15;95346.28;5076570;28;20028;-89
2021/03/12 08:22:58;;;;;;;27.35;15.82;;;;;;;3.59;81.94;95337.41;5078641;28;20079;-88
2021/03/12 08:25:47;;;;;;;25.85;14.52;;;;;;;3.59;81.94;95337.41;5083000;28;20036;-89
2021/03/12 08:28:13;;;;;;;32.85;21.95;;;;;;;3.89;83.81;95359.44;5075816;28;20032;-89
2021/03/12 08:30:38;;;;;;;39.63;25.58;;;;;;;3.53;85.67;95354.50;5077028;28;20142;-90
2021/03/12 08:33:05;;;;;;;35.15;22.05;;;;;;;3.47;85.15;95326.72;5072495;28;20021;-90
2021/03/12 08:35:37;;;;;;;28.23;18.10;;;;;;;3.94;83.05;95358.84;5062845;28;20028;-89
2021/03/12 08:38:23;;;;;;;27.80;16.52;;;;;;;4.05;82.70;95339.66;5080813;28;20033;-92
2021/03/12 08:41:00;;;;;;;24.70;14.15;;;;;;;4.31;82.55;95359.06;5088482;28;20056;-91
2021/03/12 08:43:28;;;;;;;19.10;12.95;;;;;;;4.31;82.55;95359.06;5075473;28;20316;-93
2021/03/12 08:46:21;;;;;;;15.57;11.13;;;;;;;4.55;82.15;95365.47;5076160;28;20027;-92
2021/03/12 08:48:48;;;;;;;14.23;9.38;;;;;;;4.55;82.15;95365.47;5072785;28;20064;-91
2021/03/12 08:51:19;;;;;;;9.18;6.05;;;;;;;4.55;82.15;95365.47;5076359;28;20040;-91
2021/03/12 08:53:49;;;;;;;10.50;6.15;;;;;;;4.55;82.15;95365.47;5079686;28;20046;-90
2021/03/12 08:56:23;;;;;;;9.13;6.60;;;;;;;4.55;82.15;95365.47;5076696;28;20399;-90
2021/03/12 08:58:49;;;;;;;13.90;7.05;;;;;;;4.55;82.15;95365.47;5076129;28;20032;-89
2021/03/12 09:01:26;;;;;;;11.68;7.80;;;;;;;4.55;82.15;95365.47;5076639;28;20025;-92
2021/03/12 09:03:54;;;;;;;16.67;10.30;;;;;;;4.55;82.15;95365.47;5075253;28;20040;-93
2021/03/12 09:06:28;;;;;;;18.65;11.25;;;;;;;4.55;82.15;95365.47;5074609;28;20035;-92
2021/03/12 09:08:55;;;;;;;18.67;11.73;;;;;;;4.55;82.15;95365.47;5087741;28;20330;-92
2021/03/12 09:11:22;;;;;;;10.75;8.20;;;;;;;-145.61;100.00;68426.72;5073676;28;20054;-91
2021/03/12 09:13:49;;;;;;;13.68;10.50;;;;;;;-145.61;100.00;68426.72;5076484;28;20320;-92
2021/03/12 09:16:24;;;;;;;6.28;4.82;;;;;;;-145.61;100.00;68426.72;5095476;28;20055;-92
2021/03/12 09:18:51;;;;;;;7.05;5.20;;;;;;;-145.61;100.00;68426.72;5075569;28;20058;-92
2021/03/12 09:21:25;;;;;;;5.47;4.50;;;;;;;-145.61;100.00;68426.72;5075503;28;20115;-91
2021/03/12 09:23:53;;;;;;;6.68;4.72;;;;;;;-145.61;100.00;68426.72;5075032;28;20028;-91
2021/03/12 09:26:21;;;;;;;4.80;3.60;;;;;;;-145.61;100.00;68426.72;5075233;28;20031;-92
2021/03/12 09:28:50;;;;;;;3.30;2.88;;;;;;;4.55;82.15;95365.47;5075289;28;20025;-91
2021/03/12 09:31:17;;;;;;;3.65;2.70;;;;;;;5.45;68.21;95366.19;5077435;28;20478;-91
2021/03/12 09:33:42;;;;;;;3.75;2.83;;;;;;;5.62;68.81;95372.03;5089431;28;20059;-91
2021/03/12 09:36:28;;;;;;;4.53;2.72;;;;;;;5.70;71.62;95367.88;5098285;28;20024;-92
2021/03/12 09:39:04;;;;;;;3.75;2.40;;;;;;;5.42;67.86;95326.69;5088413;28;20024;-91
2021/03/12 09:41:30;;;;;;;3.25;2.50;;;;;;;5.35;68.15;95302.00;5080134;28;20412;-92
2021/03/12 09:44:08;;;;;;;3.33;1.88;;;;;;;5.67;65.97;95389.56;5078677;28;20078;-90
2021/03/12 09:46:36;;;;;;;2.08;1.60;;;;;;;5.59;66.96;95340.59;5078728;28;20035;-91
2021/03/12 09:49:17;;;;;;;2.42;2.20;;;;;;;5.30;68.11;95319.50;5077332;28;20068;-91
2021/03/12 09:51:44;;;;;;;;;;;;;;;5.42;67.49;95385.94;5067160;28;20056;-90
2021/03/12 09:54:11;;;;;;;3.05;2.40;;;;;;;5.55;67.16;95366.97;5088845;28;19930;-91
2021/03/12 09:56:40;;;;;;;1.98;1.77;;;;;;;5.67;67.28;95387.63;5078546;28;20412;-91
2021/03/12 09:59:06;;;;;;;1.98;1.88;;;;;;;4.87;67.88;95336.59;5078501;28;20060;-91
2021/03/12 10:01:40;;;;;;;2.35;1.95;;;;;;;5.31;69.01;95406.41;5078555;28;20413;-91
2021/03/12 10:04:29;;;;;;;28.35;3.20;;;;;;;5.14;68.83;95424.75;5078940;28;20032;-91
2021/03/12 10:07:05;;;;;;;2.75;1.98;;;;;;;5.18;68.38;95399.19;5079175;28;20301;-92
2021/03/12 10:09:32;;;;;;;3.53;2.80;;;;;;;5.22;66.91;95386.34;5079486;28;20032;-91
2021/03/12 10:11:59;;;;;;;6.63;3.90;;;;;;;5.03;68.26;95424.44;5077251;28;20123;-91
2021/03/12 10:14:37;;;;;;;3.67;2.28;;;;;;;5.00;69.16;95394.50;5078094;28;20075;-90
2021/03/12 10:17:20;;;;;;;2.40;1.88;;;;;;;5.01;64.09;95414.09;5078063;28;20021;-91
2021/03/12 10:19:53;;;;;;;4.40;2.70;;;;;;;5.14;62.46;95427.44;5077925;28;20036;-90
2021/03/12 10:22:43;;;;;;;4.03;2.55;;;;;;;5.14;61.96;95436.28;5077963;28;20124;-90
2021/03/12 10:25:14;;;;;;;2.70;1.80;;;;;;;5.64;63.23;95482.03;5090761;28;20035;-89
2021/03/12 10:27:50;;;;;;;2.85;1.70;;;;;;;5.62;62.63;95474.41;5078178;28;20044;-91
2021/03/12 10:30:22;;;;;;;4.68;2.65;;;;;;;5.74;62.28;95475.47;5079019;28;20030;-91
2021/03/12 10:32:53;;;;;;;5.00;2.60;;;;;;;5.82;64.67;95476.72;5077259;28;20020;-91
2021/03/12 10:35:22;;;;;;;5.30;2.25;;;;;;;5.72;61.86;95494.06;5077801;28;20032;-91
2021/03/12 10:37:48;;;;;;;2.88;1.30;;;;;;;5.79;63.17;95470.25;5077574;28;20111;-91
2021/03/12 10:40:15;;;;;;;2.97;1.30;;;;;;;5.41;62.31;95389.06;5076897;28;20036;-90
2021/03/12 10:42:41;;;;;;;1.90;1.30;;;;;;;6.29;63.38;95489.06;5077127;28;20031;-91
2021/03/12 10:45:09;;;;;;;2.80;1.52;;;;;;;5.75;60.59;95417.69;5074817;28;20044;-91
2021/03/12 10:47:35;;;;;;;11.63;5.07;;;;;;;7.03;85.44;95476.19;5083563;28;20167;-90
2021/03/12 10:50:21;;;;;;;5.70;3.00;;;;;;;6.94;75.77;95457.31;5074799;28;20062;-90
2021/03/12 10:52:48;;;;;;;6.40;3.00;;;;;;;7.58;79.14;95419.97;5078195;28;20041;-91
2021/03/12 10:55:14;;;;;;;8.90;3.83;;;;;;;7.41;62.96;95472.16;5086086;28;20020;-91
2021/03/12 10:57:47;;;;;;;7.80;3.97;;;;;;;8.21;76.43;95465.97;5074501;28;20032;-91
2021/03/12 11:00:32;;;;;;;3.08;1.60;;;;;;;7.50;57.37;95445.09;5080772;28;20066;-90
2021/03/12 11:02:59;;;;;;;3.72;1.98;;;;;;;7.41;60.98;95442.44;5091082;28;20021;-92
2021/03/12 11:05:25;;;;;;;2.28;1.77;;;;;;;8.22;59.50;95513.44;5074770;28;20024;-90
2021/03/12 11:07:51;;;;;;;7.97;6.13;;;;;;;9.27;63.98;95513.13;5077629;28;20391;-91
2021/03/12 11:10:17;;;;;;;7.47;3.47;;;;;;;7.87;57.69;95475.34;5077374;28;20320;-90
2021/03/12 11:12:47;;;;;;;4.18;2.03;;;;;;;7.98;56.90;95477.53;5085633;28;20028;-90
2021/03/12 11:15:17;;;;;;;2.87;2.43;;;;;;;7.78;58.17;95457.25;5093678;28;20059;-90
2021/03/12 11:17:46;;;;;;;2.63;2.10;;;;;;;7.56;57.37;95498.06;5077239;28;20037;-92
2021/03/12 11:20:22;;;;;;;8.25;3.95;;;;;;;7.24;57.22;95534.63;5080658;28;20027;-91
2021/03/12 11:22:49;;;;;;;4.18;1.90;;;;;;;6.72;57.16;95498.75;5076485;28;20033;-92
2021/03/12 11:25:16;;;;;;;4.57;2.60;;;;;;;6.77;58.87;95538.66;5076764;28;20028;-91
2021/03/12 11:27:43;;;;;;;3.05;1.80;;;;;;;6.51;59.15;95486.19;5083392;28;20365;-91
2021/03/12 11:30:12;;;;;;;4.13;2.45;;;;;;;6.34;59.16;95485.00;5069732;28;20033;-90
2021/03/12 11:32:39;;;;;;;4.13;2.88;;;;;;;6.12;60.22;95464.31;5098092;28;20028;-90
2021/03/12 11:35:06;;;;;;;4.85;2.88;;;;;;;6.42;59.84;95503.13;5079673;28;20204;-92
2021/03/12 11:37:32;;;;;;;4.53;3.13;;;;;;;6.37;60.49;95460.56;5076844;28;20039;-91
2021/03/12 11:39:59;;;;;;;6.13;3.08;;;;;;;6.56;61.48;95507.19;5076772;28;20033;-93
2021/03/12 11:42:24;;;;;;;3.67;2.22;;;;;;;6.34;61.61;95493.09;5076704;28;20028;-92